METAR Data
IDs: Format: Raw Decoded Include TAF

Data at: 2140 UTC 01 Dec 2021

EGQL 012050Z 30008KT CAVOK 03/M02 Q1007 RMK BLU